sensor_id;sensor_type;location;lat;lon;timestamp;P1;durP1;ratioP1;P2;durP2;ratioP2
20287;SDS011;10303;51.960;8.372;2023-04-23T00:01:28;22.43;;;13.37;;
20287;SDS011;10303;51.960;8.372;2023-04-23T00:03:59;25.27;;;14.70;;
20287;SDS011;10303;51.960;8.372;2023-04-23T00:06:27;20.70;;;13.97;;
20287;SDS011;10303;51.960;8.372;2023-04-23T00:08:54;23.97;;;13.67;;
20287;SDS011;10303;51.960;8.372;2023-04-23T00:11:25;24.57;;;15.03;;
20287;SDS011;10303;51.960;8.372;2023-04-23T00:13:52;26.97;;;15.90;;
20287;SDS011;10303;51.960;8.372;2023-04-23T00:16:18;25.33;;;15.70;;
20287;SDS011;10303;51.960;8.372;2023-04-23T00:18:46;26.70;;;15.83;;
20287;SDS011;10303;51.960;8.372;2023-04-23T00:21:12;26.00;;;16.03;;
20287;SDS011;10303;51.960;8.372;2023-04-23T00:23:38;30.17;;;14.20;;
20287;SDS011;10303;51.960;8.372;2023-04-23T00:26:04;23.63;;;15.43;;
20287;SDS011;10303;51.960;8.372;2023-04-23T00:28:30;27.57;;;16.70;;
20287;SDS011;10303;51.960;8.372;2023-04-23T00:30:56;30.00;;;16.17;;
20287;SDS011;10303;51.960;8.372;2023-04-23T00:33:22;25.43;;;16.37;;
20287;SDS011;10303;51.960;8.372;2023-04-23T00:35:48;24.43;;;14.37;;
20287;SDS011;10303;51.960;8.372;2023-04-23T00:38:14;25.57;;;15.33;;
20287;SDS011;10303;51.960;8.372;2023-04-23T00:40:40;24.30;;;14.17;;
20287;SDS011;10303;51.960;8.372;2023-04-23T00:43:06;19.50;;;12.73;;
20287;SDS011;10303;51.960;8.372;2023-04-23T00:45:33;28.77;;;15.57;;
20287;SDS011;10303;51.960;8.372;2023-04-23T00:48:00;23.47;;;14.80;;
20287;SDS011;10303;51.960;8.372;2023-04-23T00:50:28;24.27;;;15.50;;
20287;SDS011;10303;51.960;8.372;2023-04-23T00:52:53;20.03;;;13.37;;
20287;SDS011;10303;51.960;8.372;2023-04-23T00:55:19;23.23;;;13.97;;
20287;SDS011;10303;51.960;8.372;2023-04-23T00:57:45;19.20;;;12.53;;
20287;SDS011;10303;51.960;8.372;2023-04-23T01:00:13;23.13;;;14.97;;
20287;SDS011;10303;51.960;8.372;2023-04-23T01:02:39;19.23;;;12.63;;
20287;SDS011;10303;51.960;8.372;2023-04-23T01:05:08;17.90;;;10.80;;
20287;SDS011;10303;51.960;8.372;2023-04-23T01:07:36;21.77;;;13.90;;
20287;SDS011;10303;51.960;8.372;2023-04-23T01:10:03;19.00;;;12.60;;
20287;SDS011;10303;51.960;8.372;2023-04-23T01:12:30;26.33;;;16.33;;
20287;SDS011;10303;51.960;8.372;2023-04-23T01:14:57;24.83;;;16.03;;
20287;SDS011;10303;51.960;8.372;2023-04-23T01:17:23;28.37;;;16.17;;
20287;SDS011;10303;51.960;8.372;2023-04-23T01:19:51;21.13;;;13.10;;
20287;SDS011;10303;51.960;8.372;2023-04-23T01:22:17;26.67;;;16.13;;
20287;SDS011;10303;51.960;8.372;2023-04-23T01:24:43;20.17;;;14.23;;
20287;SDS011;10303;51.960;8.372;2023-04-23T01:27:10;29.73;;;16.70;;
20287;SDS011;10303;51.960;8.372;2023-04-23T01:29:36;29.23;;;16.03;;
20287;SDS011;10303;51.960;8.372;2023-04-23T01:32:04;29.43;;;17.23;;
20287;SDS011;10303;51.960;8.372;2023-04-23T01:34:31;29.27;;;16.50;;
20287;SDS011;10303;51.960;8.372;2023-04-23T01:36:57;28.93;;;16.77;;
20287;SDS011;10303;51.960;8.372;2023-04-23T01:39:25;30.37;;;17.07;;
20287;SDS011;10303;51.960;8.372;2023-04-23T01:41:51;31.93;;;17.73;;
20287;SDS011;10303;51.960;8.372;2023-04-23T01:44:18;29.60;;;17.13;;
20287;SDS011;10303;51.960;8.372;2023-04-23T01:46:44;24.63;;;14.13;;
20287;SDS011;10303;51.960;8.372;2023-04-23T01:49:12;28.70;;;16.97;;
20287;SDS011;10303;51.960;8.372;2023-04-23T01:51:39;20.87;;;12.87;;
20287;SDS011;10303;51.960;8.372;2023-04-23T01:54:07;30.03;;;16.67;;
20287;SDS011;10303;51.960;8.372;2023-04-23T01:56:33;30.17;;;17.03;;
20287;SDS011;10303;51.960;8.372;2023-04-23T01:59:00;23.80;;;13.77;;
20287;SDS011;10303;51.960;8.372;2023-04-23T02:01:39;32.07;;;17.27;;
20287;SDS011;10303;51.960;8.372;2023-04-23T02:04:11;28.70;;;17.27;;
20287;SDS011;10303;51.960;8.372;2023-04-23T02:06:39;21.80;;;12.30;;
20287;SDS011;10303;51.960;8.372;2023-04-23T02:09:08;30.50;;;17.97;;
20287;SDS011;10303;51.960;8.372;2023-04-23T02:11:34;32.47;;;17.80;;
20287;SDS011;10303;51.960;8.372;2023-04-23T02:14:00;24.83;;;13.37;;
20287;SDS011;10303;51.960;8.372;2023-04-23T02:16:28;32.30;;;15.47;;
20287;SDS011;10303;51.960;8.372;2023-04-23T02:18:55;28.20;;;15.07;;
20287;SDS011;10303;51.960;8.372;2023-04-23T02:21:23;27.03;;;15.93;;
20287;SDS011;10303;51.960;8.372;2023-04-23T02:23:51;26.50;;;14.97;;
20287;SDS011;10303;51.960;8.372;2023-04-23T02:26:18;31.13;;;16.67;;
20287;SDS011;10303;51.960;8.372;2023-04-23T02:28:44;26.87;;;15.83;;
20287;SDS011;10303;51.960;8.372;2023-04-23T02:31:10;32.37;;;18.17;;
20287;SDS011;10303;51.960;8.372;2023-04-23T02:33:37;31.57;;;16.87;;
20287;SDS011;10303;51.960;8.372;2023-04-23T02:36:06;26.20;;;14.60;;
20287;SDS011;10303;51.960;8.372;2023-04-23T02:38:34;34.00;;;17.43;;
20287;SDS011;10303;51.960;8.372;2023-04-23T02:41:00;40.40;;;21.13;;
20287;SDS011;10303;51.960;8.372;2023-04-23T02:43:26;38.23;;;18.37;;
20287;SDS011;10303;51.960;8.372;2023-04-23T02:45:52;36.00;;;17.63;;
20287;SDS011;10303;51.960;8.372;2023-04-23T02:48:18;36.20;;;18.47;;
20287;SDS011;10303;51.960;8.372;2023-04-23T02:50:45;32.87;;;17.43;;
20287;SDS011;10303;51.960;8.372;2023-04-23T02:53:11;34.30;;;18.73;;
20287;SDS011;10303;51.960;8.372;2023-04-23T02:55:37;33.87;;;18.83;;
20287;SDS011;10303;51.960;8.372;2023-04-23T02:58:03;32.47;;;17.47;;
20287;SDS011;10303;51.960;8.372;2023-04-23T03:00:32;37.47;;;18.50;;
20287;SDS011;10303;51.960;8.372;2023-04-23T03:02:58;33.67;;;17.63;;
20287;SDS011;10303;51.960;8.372;2023-04-23T03:05:24;37.17;;;19.03;;
20287;SDS011;10303;51.960;8.372;2023-04-23T03:07:50;30.37;;;15.73;;
20287;SDS011;10303;51.960;8.372;2023-04-23T03:10:16;31.10;;;17.47;;
20287;SDS011;10303;51.960;8.372;2023-04-23T03:12:42;23.57;;;12.43;;
20287;SDS011;10303;51.960;8.372;2023-04-23T03:15:08;22.47;;;12.27;;
20287;SDS011;10303;51.960;8.372;2023-04-23T03:17:36;19.30;;;12.73;;
20287;SDS011;10303;51.960;8.372;2023-04-23T03:20:04;25.67;;;12.90;;
20287;SDS011;10303;51.960;8.372;2023-04-23T03:22:31;24.10;;;13.23;;
20287;SDS011;10303;51.960;8.372;2023-04-23T03:24:57;29.20;;;15.93;;
20287;SDS011;10303;51.960;8.372;2023-04-23T03:27:24;32.27;;;16.53;;
20287;SDS011;10303;51.960;8.372;2023-04-23T03:29:50;19.47;;;11.27;;
20287;SDS011;10303;51.960;8.372;2023-04-23T03:32:16;16.50;;;10.17;;
20287;SDS011;10303;51.960;8.372;2023-04-23T03:34:42;12.83;;;7.80;;
20287;SDS011;10303;51.960;8.372;2023-04-23T03:37:08;14.10;;;8.87;;
20287;SDS011;10303;51.960;8.372;2023-04-23T03:39:36;13.23;;;8.97;;
20287;SDS011;10303;51.960;8.372;2023-04-23T03:42:03;11.67;;;7.67;;
20287;SDS011;10303;51.960;8.372;2023-04-23T03:44:30;18.03;;;10.33;;
20287;SDS011;10303;51.960;8.372;2023-04-23T03:46:56;14.10;;;9.40;;
20287;SDS011;10303;51.960;8.372;2023-04-23T03:49:22;14.33;;;9.17;;
20287;SDS011;10303;51.960;8.372;2023-04-23T03:51:48;14.57;;;8.23;;
20287;SDS011;10303;51.960;8.372;2023-04-23T03:54:15;11.13;;;7.23;;
20287;SDS011;10303;51.960;8.372;2023-04-23T03:57:01;15.63;;;9.60;;
20287;SDS011;10303;51.960;8.372;2023-04-23T03:59:32;16.37;;;9.90;;
20287;SDS011;10303;51.960;8.372;2023-04-23T04:01:58;12.10;;;7.90;;
20287;SDS011;10303;51.960;8.372;2023-04-23T04:04:25;16.83;;;9.37;;
20287;SDS011;10303;51.960;8.372;2023-04-23T04:06:51;12.70;;;8.03;;
20287;SDS011;10303;51.960;8.372;2023-04-23T04:09:17;13.83;;;8.13;;
20287;SDS011;10303;51.960;8.372;2023-04-23T04:11:43;12.03;;;7.97;;
20287;SDS011;10303;51.960;8.372;2023-04-23T04:14:08;11.83;;;7.40;;
20287;SDS011;10303;51.960;8.372;2023-04-23T04:16:35;11.13;;;6.90;;
20287;SDS011;10303;51.960;8.372;2023-04-23T04:19:01;11.80;;;7.27;;
20287;SDS011;10303;51.960;8.372;2023-04-23T04:21:27;10.23;;;6.53;;
20287;SDS011;10303;51.960;8.372;2023-04-23T04:23:54;10.93;;;6.93;;
20287;SDS011;10303;51.960;8.372;2023-04-23T04:26:21;11.67;;;7.13;;
20287;SDS011;10303;51.960;8.372;2023-04-23T04:28:47;9.93;;;6.77;;
20287;SDS011;10303;51.960;8.372;2023-04-23T04:31:13;14.20;;;7.17;;
20287;SDS011;10303;51.960;8.372;2023-04-23T04:33:40;10.30;;;7.07;;
20287;SDS011;10303;51.960;8.372;2023-04-23T04:36:06;10.93;;;6.63;;
20287;SDS011;10303;51.960;8.372;2023-04-23T04:38:35;12.13;;;7.53;;
20287;SDS011;10303;51.960;8.372;2023-04-23T04:41:04;10.77;;;6.83;;
20287;SDS011;10303;51.960;8.372;2023-04-23T04:43:32;10.60;;;7.23;;
20287;SDS011;10303;51.960;8.372;2023-04-23T04:45:59;12.10;;;7.37;;
20287;SDS011;10303;51.960;8.372;2023-04-23T04:48:25;11.07;;;7.43;;
20287;SDS011;10303;51.960;8.372;2023-04-23T04:50:51;12.37;;;7.57;;
20287;SDS011;10303;51.960;8.372;2023-04-23T04:53:17;13.57;;;7.50;;
20287;SDS011;10303;51.960;8.372;2023-04-23T04:55:43;14.30;;;7.97;;
20287;SDS011;10303;51.960;8.372;2023-04-23T04:58:09;10.27;;;7.23;;
20287;SDS011;10303;51.960;8.372;2023-04-23T05:00:35;12.93;;;7.57;;
20287;SDS011;10303;51.960;8.372;2023-04-23T05:03:02;11.27;;;6.57;;
20287;SDS011;10303;51.960;8.372;2023-04-23T05:05:28;12.57;;;7.97;;
20287;SDS011;10303;51.960;8.372;2023-04-23T05:07:56;12.67;;;7.07;;
20287;SDS011;10303;51.960;8.372;2023-04-23T05:10:26;14.40;;;7.77;;
20287;SDS011;10303;51.960;8.372;2023-04-23T05:12:57;14.10;;;7.87;;
20287;SDS011;10303;51.960;8.372;2023-04-23T05:15:25;12.93;;;7.33;;
20287;SDS011;10303;51.960;8.372;2023-04-23T05:17:52;17.50;;;8.53;;
20287;SDS011;10303;51.960;8.372;2023-04-23T05:20:18;14.17;;;7.93;;
20287;SDS011;10303;51.960;8.372;2023-04-23T05:22:45;13.77;;;7.50;;
20287;SDS011;10303;51.960;8.372;2023-04-23T05:25:12;11.93;;;7.50;;
20287;SDS011;10303;51.960;8.372;2023-04-23T05:27:38;12.30;;;7.23;;
20287;SDS011;10303;51.960;8.372;2023-04-23T05:30:08;11.90;;;6.77;;
20287;SDS011;10303;51.960;8.372;2023-04-23T05:32:35;11.20;;;7.43;;
20287;SDS011;10303;51.960;8.372;2023-04-23T05:35:02;11.50;;;7.00;;
20287;SDS011;10303;51.960;8.372;2023-04-23T05:37:30;12.40;;;6.87;;
20287;SDS011;10303;51.960;8.372;2023-04-23T05:39:56;12.53;;;6.90;;
20287;SDS011;10303;51.960;8.372;2023-04-23T05:42:22;9.60;;;6.73;;
20287;SDS011;10303;51.960;8.372;2023-04-23T05:44:48;11.03;;;6.43;;
20287;SDS011;10303;51.960;8.372;2023-04-23T05:47:14;11.60;;;6.87;;
20287;SDS011;10303;51.960;8.372;2023-04-23T05:49:40;12.87;;;7.93;;
20287;SDS011;10303;51.960;8.372;2023-04-23T05:52:07;14.37;;;7.97;;
20287;SDS011;10303;51.960;8.372;2023-04-23T05:54:33;11.20;;;6.90;;
20287;SDS011;10303;51.960;8.372;2023-04-23T05:56:59;13.57;;;8.13;;
20287;SDS011;10303;51.960;8.372;2023-04-23T05:59:25;11.63;;;7.17;;
20287;SDS011;10303;51.960;8.372;2023-04-23T06:01:51;13.63;;;7.40;;
20287;SDS011;10303;51.960;8.372;2023-04-23T06:04:17;12.67;;;8.17;;
20287;SDS011;10303;51.960;8.372;2023-04-23T06:06:43;22.20;;;11.63;;
20287;SDS011;10303;51.960;8.372;2023-04-23T06:09:09;22.23;;;12.37;;
20287;SDS011;10303;51.960;8.372;2023-04-23T06:11:36;19.27;;;10.50;;
20287;SDS011;10303;51.960;8.372;2023-04-23T06:14:03;20.03;;;11.97;;
20287;SDS011;10303;51.960;8.372;2023-04-23T06:16:29;24.43;;;13.60;;
20287;SDS011;10303;51.960;8.372;2023-04-23T06:18:56;15.07;;;8.63;;
20287;SDS011;10303;51.960;8.372;2023-04-23T06:21:22;21.13;;;12.27;;
20287;SDS011;10303;51.960;8.372;2023-04-23T06:23:48;22.60;;;12.13;;
20287;SDS011;10303;51.960;8.372;2023-04-23T06:26:15;21.13;;;11.60;;
20287;SDS011;10303;51.960;8.372;2023-04-23T06:28:44;16.23;;;10.00;;
20287;SDS011;10303;51.960;8.372;2023-04-23T06:31:25;16.47;;;10.33;;
20287;SDS011;10303;51.960;8.372;2023-04-23T06:33:52;25.43;;;14.00;;
20287;SDS011;10303;51.960;8.372;2023-04-23T06:36:19;20.27;;;10.43;;
20287;SDS011;10303;51.960;8.372;2023-04-23T06:38:45;17.97;;;9.40;;
20287;SDS011;10303;51.960;8.372;2023-04-23T06:41:11;29.10;;;15.90;;
20287;SDS011;10303;51.960;8.372;2023-04-23T06:43:37;24.57;;;13.40;;
20287;SDS011;10303;51.960;8.372;2023-04-23T06:46:18;24.10;;;13.70;;
20287;SDS011;10303;51.960;8.372;2023-04-23T06:48:44;22.83;;;12.23;;
20287;SDS011;10303;51.960;8.372;2023-04-23T06:51:10;28.03;;;14.77;;
20287;SDS011;10303;51.960;8.372;2023-04-23T06:53:36;20.13;;;11.67;;
20287;SDS011;10303;51.960;8.372;2023-04-23T06:56:02;18.00;;;10.30;;
20287;SDS011;10303;51.960;8.372;2023-04-23T06:58:28;20.53;;;11.77;;
20287;SDS011;10303;51.960;8.372;2023-04-23T07:00:59;14.53;;;9.33;;
20287;SDS011;10303;51.960;8.372;2023-04-23T07:03:30;20.20;;;11.53;;
20287;SDS011;10303;51.960;8.372;2023-04-23T07:05:56;21.13;;;12.57;;
20287;SDS011;10303;51.960;8.372;2023-04-23T07:08:22;20.00;;;10.67;;
20287;SDS011;10303;51.960;8.372;2023-04-23T07:10:48;18.50;;;9.53;;
20287;SDS011;10303;51.960;8.372;2023-04-23T07:13:14;24.10;;;14.10;;
20287;SDS011;10303;51.960;8.372;2023-04-23T07:15:41;26.07;;;14.17;;
20287;SDS011;10303;51.960;8.372;2023-04-23T07:18:08;23.43;;;13.43;;
20287;SDS011;10303;51.960;8.372;2023-04-23T07:20:34;21.73;;;13.60;;
20287;SDS011;10303;51.960;8.372;2023-04-23T07:23:00;17.30;;;10.63;;
20287;SDS011;10303;51.960;8.372;2023-04-23T07:25:28;22.80;;;13.23;;
20287;SDS011;10303;51.960;8.372;2023-04-23T07:27:55;21.60;;;12.77;;
20287;SDS011;10303;51.960;8.372;2023-04-23T07:30:22;20.57;;;13.27;;
20287;SDS011;10303;51.960;8.372;2023-04-23T07:32:50;18.37;;;11.17;;
20287;SDS011;10303;51.960;8.372;2023-04-23T07:35:16;17.90;;;11.43;;
20287;SDS011;10303;51.960;8.372;2023-04-23T07:37:42;25.07;;;14.53;;
20287;SDS011;10303;51.960;8.372;2023-04-23T07:40:08;16.67;;;10.33;;
20287;SDS011;10303;51.960;8.372;2023-04-23T07:42:35;22.80;;;14.00;;
20287;SDS011;10303;51.960;8.372;2023-04-23T07:45:01;16.70;;;10.47;;
20287;SDS011;10303;51.960;8.372;2023-04-23T07:47:27;17.67;;;10.17;;
20287;SDS011;10303;51.960;8.372;2023-04-23T07:49:53;14.93;;;10.10;;
20287;SDS011;10303;51.960;8.372;2023-04-23T07:52:19;16.60;;;10.10;;
20287;SDS011;10303;51.960;8.372;2023-04-23T07:54:45;15.70;;;9.30;;
20287;SDS011;10303;51.960;8.372;2023-04-23T07:57:11;12.57;;;8.57;;
20287;SDS011;10303;51.960;8.372;2023-04-23T07:59:37;15.87;;;10.00;;
20287;SDS011;10303;51.960;8.372;2023-04-23T08:02:04;13.63;;;9.33;;
20287;SDS011;10303;51.960;8.372;2023-04-23T08:04:31;14.57;;;9.37;;
20287;SDS011;10303;51.960;8.372;2023-04-23T08:06:57;11.20;;;7.47;;
20287;SDS011;10303;51.960;8.372;2023-04-23T08:09:24;9.67;;;7.50;;
20287;SDS011;10303;51.960;8.372;2023-04-23T08:11:51;9.23;;;7.50;;
20287;SDS011;10303;51.960;8.372;2023-04-23T08:14:17;8.43;;;6.17;;
20287;SDS011;10303;51.960;8.372;2023-04-23T08:16:44;8.63;;;6.27;;
20287;SDS011;10303;51.960;8.372;2023-04-23T08:19:09;10.00;;;6.77;;
20287;SDS011;10303;51.960;8.372;2023-04-23T08:21:37;8.57;;;6.13;;
20287;SDS011;10303;51.960;8.372;2023-04-23T08:24:04;11.67;;;8.03;;
20287;SDS011;10303;51.960;8.372;2023-04-23T08:26:33;10.70;;;7.70;;
20287;SDS011;10303;51.960;8.372;2023-04-23T08:28:59;9.20;;;7.20;;
20287;SDS011;10303;51.960;8.372;2023-04-23T08:31:27;10.63;;;7.57;;
20287;SDS011;10303;51.960;8.372;2023-04-23T08:33:53;12.83;;;8.20;;
20287;SDS011;10303;51.960;8.372;2023-04-23T08:36:19;8.77;;;6.77;;
20287;SDS011;10303;51.960;8.372;2023-04-23T08:38:45;6.30;;;5.70;;
20287;SDS011;10303;51.960;8.372;2023-04-23T08:41:12;7.07;;;6.03;;
20287;SDS011;10303;51.960;8.372;2023-04-23T08:43:43;5.57;;;5.07;;
20287;SDS011;10303;51.960;8.372;2023-04-23T08:46:17;6.30;;;5.00;;
20287;SDS011;10303;51.960;8.372;2023-04-23T08:48:43;5.03;;;4.47;;
20287;SDS011;10303;51.960;8.372;2023-04-23T08:51:12;6.83;;;5.43;;
20287;SDS011;10303;51.960;8.372;2023-04-23T08:53:43;5.80;;;5.30;;
20287;SDS011;10303;51.960;8.372;2023-04-23T08:56:16;5.63;;;5.00;;
20287;SDS011;10303;51.960;8.372;2023-04-23T08:58:44;4.47;;;4.07;;
20287;SDS011;10303;51.960;8.372;2023-04-23T09:01:11;6.00;;;5.40;;
20287;SDS011;10303;51.960;8.372;2023-04-23T09:03:38;6.23;;;5.33;;
20287;SDS011;10303;51.960;8.372;2023-04-23T09:06:06;5.33;;;4.83;;
20287;SDS011;10303;51.960;8.372;2023-04-23T09:08:33;7.40;;;6.07;;
20287;SDS011;10303;51.960;8.372;2023-04-23T09:11:00;6.37;;;4.70;;
20287;SDS011;10303;51.960;8.372;2023-04-23T09:13:27;6.60;;;4.53;;
20287;SDS011;10303;51.960;8.372;2023-04-23T09:15:55;5.07;;;4.57;;
20287;SDS011;10303;51.960;8.372;2023-04-23T09:18:21;3.47;;;3.20;;
20287;SDS011;10303;51.960;8.372;2023-04-23T09:20:48;5.43;;;4.50;;
20287;SDS011;10303;51.960;8.372;2023-04-23T09:23:14;4.77;;;4.37;;
20287;SDS011;10303;51.960;8.372;2023-04-23T09:25:41;6.70;;;5.67;;
20287;SDS011;10303;51.960;8.372;2023-04-23T09:28:07;6.83;;;6.13;;
20287;SDS011;10303;51.960;8.372;2023-04-23T09:30:44;6.40;;;5.10;;
20287;SDS011;10303;51.960;8.372;2023-04-23T09:33:12;5.63;;;5.13;;
20287;SDS011;10303;51.960;8.372;2023-04-23T09:35:41;4.57;;;4.17;;
20287;SDS011;10303;51.960;8.372;2023-04-23T09:38:08;5.23;;;4.73;;
20287;SDS011;10303;51.960;8.372;2023-04-23T09:40:34;6.77;;;4.67;;
20287;SDS011;10303;51.960;8.372;2023-04-23T09:43:02;7.67;;;6.00;;
20287;SDS011;10303;51.960;8.372;2023-04-23T09:45:29;5.20;;;4.60;;
20287;SDS011;10303;51.960;8.372;2023-04-23T09:47:57;4.27;;;3.87;;
20287;SDS011;10303;51.960;8.372;2023-04-23T09:50:33;3.40;;;3.20;;
20287;SDS011;10303;51.960;8.372;2023-04-23T09:53:06;3.73;;;3.43;;
20287;SDS011;10303;51.960;8.372;2023-04-23T09:55:34;5.40;;;4.90;;
20287;SDS011;10303;51.960;8.372;2023-04-23T09:58:09;6.15;;;5.60;;
20287;SDS011;10303;51.960;8.372;2023-04-23T10:00:39;3.88;;;3.58;;
20287;SDS011;10303;51.960;8.372;2023-04-23T10:03:06;4.70;;;4.30;;
20287;SDS011;10303;51.960;8.372;2023-04-23T10:05:42;4.05;;;3.72;;
20287;SDS011;10303;51.960;8.372;2023-04-23T10:08:09;4.25;;;3.80;;
20287;SDS011;10303;51.960;8.372;2023-04-23T10:10:37;4.63;;;3.90;;
20287;SDS011;10303;51.960;8.372;2023-04-23T10:13:04;4.30;;;4.00;;
20287;SDS011;10303;51.960;8.372;2023-04-23T10:15:31;3.22;;;2.92;;
20287;SDS011;10303;51.960;8.372;2023-04-23T10:17:58;6.35;;;3.13;;
20287;SDS011;10303;51.960;8.372;2023-04-23T10:20:24;2.78;;;2.58;;
20287;SDS011;10303;51.960;8.372;2023-04-23T10:22:51;3.90;;;3.20;;
20287;SDS011;10303;51.960;8.372;2023-04-23T10:25:30;3.65;;;1.92;;
20287;SDS011;10303;51.960;8.372;2023-04-23T10:27:57;3.40;;;2.53;;
20287;SDS011;10303;51.960;8.372;2023-04-23T10:30:28;2.38;;;2.28;;
20287;SDS011;10303;51.960;8.372;2023-04-23T10:32:54;3.35;;;2.78;;
20287;SDS011;10303;51.960;8.372;2023-04-23T10:35:24;2.85;;;2.20;;
20287;SDS011;10303;51.960;8.372;2023-04-23T10:37:51;4.32;;;3.05;;
20287;SDS011;10303;51.960;8.372;2023-04-23T10:40:20;3.95;;;2.55;;
20287;SDS011;10303;51.960;8.372;2023-04-23T10:42:54;4.80;;;3.20;;
20287;SDS011;10303;51.960;8.372;2023-04-23T10:45:21;4.60;;;2.47;;
20287;SDS011;10303;51.960;8.372;2023-04-23T10:47:47;2.78;;;2.40;;
20287;SDS011;10303;51.960;8.372;2023-04-23T10:52:50;7.75;;;3.47;;
20287;SDS011;10303;51.960;8.372;2023-04-23T10:55:19;3.10;;;2.90;;
20287;SDS011;10303;51.960;8.372;2023-04-23T10:58:00;3.47;;;2.80;;
20287;SDS011;10303;51.960;8.372;2023-04-23T11:00:29;2.33;;;1.97;;
20287;SDS011;10303;51.960;8.372;2023-04-23T11:06:04;6.07;;;2.87;;
20287;SDS011;10303;51.960;8.372;2023-04-23T11:08:31;2.70;;;2.40;;
20287;SDS011;10303;51.960;8.372;2023-04-23T11:11:00;2.13;;;2.03;;
20287;SDS011;10303;51.960;8.372;2023-04-23T11:13:31;2.93;;;2.73;;
20287;SDS011;10303;51.960;8.372;2023-04-23T11:16:14;2.83;;;2.63;;
20287;SDS011;10303;51.960;8.372;2023-04-23T11:18:57;3.90;;;3.60;;
20287;SDS011;10303;51.960;8.372;2023-04-23T11:24:24;3.30;;;3.10;;
20287;SDS011;10303;51.960;8.372;2023-04-23T11:26:53;3.20;;;3.00;;
20287;SDS011;10303;51.960;8.372;2023-04-23T11:29:21;2.40;;;2.20;;
20287;SDS011;10303;51.960;8.372;2023-04-23T11:31:49;3.53;;;3.33;;
20287;SDS011;10303;51.960;8.372;2023-04-23T11:34:16;2.40;;;2.20;;
20287;SDS011;10303;51.960;8.372;2023-04-23T11:36:43;2.80;;;2.20;;
20287;SDS011;10303;51.960;8.372;2023-04-23T11:39:09;2.67;;;2.15;;
20287;SDS011;10303;51.960;8.372;2023-04-23T11:41:36;1.92;;;1.83;;
20287;SDS011;10303;51.960;8.372;2023-04-23T11:44:02;2.42;;;2.22;;
20287;SDS011;10303;51.960;8.372;2023-04-23T11:46:29;2.25;;;2.05;;
20287;SDS011;10303;51.960;8.372;2023-04-23T11:48:55;2.00;;;1.90;;
20287;SDS011;10303;51.960;8.372;2023-04-23T11:51:27;1.63;;;1.50;;
20287;SDS011;10303;51.960;8.372;2023-04-23T11:53:53;1.27;;;1.17;;
20287;SDS011;10303;51.960;8.372;2023-04-23T11:56:29;3.63;;;2.40;;
20287;SDS011;10303;51.960;8.372;2023-04-23T11:58:59;2.47;;;1.85;;
20287;SDS011;10303;51.960;8.372;2023-04-23T12:01:40;2.05;;;1.85;;
20287;SDS011;10303;51.960;8.372;2023-04-23T12:04:13;1.77;;;1.67;;
20287;SDS011;10303;51.960;8.372;2023-04-23T12:06:42;2.05;;;1.95;;
20287;SDS011;10303;51.960;8.372;2023-04-23T12:09:11;2.10;;;1.92;;
20287;SDS011;10303;51.960;8.372;2023-04-23T12:11:39;3.33;;;2.05;;
20287;SDS011;10303;51.960;8.372;2023-04-23T12:14:07;4.85;;;1.98;;
20287;SDS011;10303;51.960;8.372;2023-04-23T12:16:36;1.55;;;1.45;;
20287;SDS011;10303;51.960;8.372;2023-04-23T12:19:08;2.28;;;1.67;;
20287;SDS011;10303;51.960;8.372;2023-04-23T12:21:52;1.58;;;1.48;;
20287;SDS011;10303;51.960;8.372;2023-04-23T12:24:27;2.20;;;2.00;;
20287;SDS011;10303;51.960;8.372;2023-04-23T12:27:12;1.65;;;1.42;;
20287;SDS011;10303;51.960;8.372;2023-04-23T12:29:44;1.35;;;1.25;;
20287;SDS011;10303;51.960;8.372;2023-04-23T12:32:12;1.58;;;1.38;;
20287;SDS011;10303;51.960;8.372;2023-04-23T12:34:52;3.47;;;1.30;;
20287;SDS011;10303;51.960;8.372;2023-04-23T12:37:23;1.48;;;1.38;;
20287;SDS011;10303;51.960;8.372;2023-04-23T12:39:55;1.30;;;1.20;;
20287;SDS011;10303;51.960;8.372;2023-04-23T12:42:23;1.25;;;1.15;;
20287;SDS011;10303;51.960;8.372;2023-04-23T12:44:50;1.85;;;1.42;;
20287;SDS011;10303;51.960;8.372;2023-04-23T12:47:16;2.45;;;1.20;;
20287;SDS011;10303;51.960;8.372;2023-04-23T12:49:43;1.42;;;1.33;;
20287;SDS011;10303;51.960;8.372;2023-04-23T12:52:10;1.23;;;1.00;;
20287;SDS011;10303;51.960;8.372;2023-04-23T12:54:40;1.70;;;1.42;;
20287;SDS011;10303;51.960;8.372;2023-04-23T12:57:09;1.48;;;1.33;;
20287;SDS011;10303;51.960;8.372;2023-04-23T12:59:37;1.45;;;1.35;;
20287;SDS011;10303;51.960;8.372;2023-04-23T13:02:03;1.92;;;1.65;;
20287;SDS011;10303;51.960;8.372;2023-04-23T13:04:32;1.20;;;1.08;;
20287;SDS011;10303;51.960;8.372;2023-04-23T13:07:00;1.55;;;0.98;;
20287;SDS011;10303;51.960;8.372;2023-04-23T13:09:29;1.27;;;1.17;;
20287;SDS011;10303;51.960;8.372;2023-04-23T13:11:55;1.48;;;1.38;;
20287;SDS011;10303;51.960;8.372;2023-04-23T13:14:21;0.95;;;0.80;;
20287;SDS011;10303;51.960;8.372;2023-04-23T13:16:47;2.65;;;1.10;;
20287;SDS011;10303;51.960;8.372;2023-04-23T13:19:15;1.40;;;1.30;;
20287;SDS011;10303;51.960;8.372;2023-04-23T13:21:43;0.85;;;0.85;;
20287;SDS011;10303;51.960;8.372;2023-04-23T13:24:09;1.05;;;0.85;;
20287;SDS011;10303;51.960;8.372;2023-04-23T13:26:36;0.60;;;0.60;;
20287;SDS011;10303;51.960;8.372;2023-04-23T13:29:02;0.60;;;0.60;;
20287;SDS011;10303;51.960;8.372;2023-04-23T13:31:28;0.70;;;0.70;;
20287;SDS011;10303;51.960;8.372;2023-04-23T13:33:55;0.85;;;0.80;;
20287;SDS011;10303;51.960;8.372;2023-04-23T13:36:22;0.80;;;0.80;;
20287;SDS011;10303;51.960;8.372;2023-04-23T13:38:49;2.85;;;0.70;;
20287;SDS011;10303;51.960;8.372;2023-04-23T13:41:15;0.75;;;0.70;;
20287;SDS011;10303;51.960;8.372;2023-04-23T13:43:41;1.05;;;0.63;;
20287;SDS011;10303;51.960;8.372;2023-04-23T13:46:07;0.60;;;0.60;;
20287;SDS011;10303;51.960;8.372;2023-04-23T13:48:33;0.60;;;0.60;;
20287;SDS011;10303;51.960;8.372;2023-04-23T13:51:00;4.65;;;1.15;;
20287;SDS011;10303;51.960;8.372;2023-04-23T13:53:26;0.50;;;0.50;;
20287;SDS011;10303;51.960;8.372;2023-04-23T13:55:53;0.80;;;0.80;;
20287;SDS011;10303;51.960;8.372;2023-04-23T13:58:20;1.20;;;0.63;;
20287;SDS011;10303;51.960;8.372;2023-04-23T14:00:47;0.55;;;0.55;;
20287;SDS011;10303;51.960;8.372;2023-04-23T14:03:13;2.58;;;1.08;;
20287;SDS011;10303;51.960;8.372;2023-04-23T14:05:40;1.13;;;1.00;;
20287;SDS011;10303;51.960;8.372;2023-04-23T14:08:06;0.80;;;0.80;;
20287;SDS011;10303;51.960;8.372;2023-04-23T14:10:33;1.50;;;0.80;;
20287;SDS011;10303;51.960;8.372;2023-04-23T14:13:01;2.70;;;1.10;;
20287;SDS011;10303;51.960;8.372;2023-04-23T14:15:29;0.60;;;0.60;;
20287;SDS011;10303;51.960;8.372;2023-04-23T14:17:55;0.70;;;0.70;;
20287;SDS011;10303;51.960;8.372;2023-04-23T14:20:22;0.97;;;0.60;;
20287;SDS011;10303;51.960;8.372;2023-04-23T14:22:48;0.73;;;0.70;;
20287;SDS011;10303;51.960;8.372;2023-04-23T14:25:33;2.23;;;0.97;;
20287;SDS011;10303;51.960;8.372;2023-04-23T14:28:08;1.10;;;0.57;;
20287;SDS011;10303;51.960;8.372;2023-04-23T14:30:48;0.40;;;0.40;;
20287;SDS011;10303;51.960;8.372;2023-04-23T14:33:14;0.30;;;0.30;;
20287;SDS011;10303;51.960;8.372;2023-04-23T14:35:40;1.53;;;0.60;;
20287;SDS011;10303;51.960;8.372;2023-04-23T14:38:07;0.63;;;0.63;;
20287;SDS011;10303;51.960;8.372;2023-04-23T14:40:35;1.60;;;0.60;;
20287;SDS011;10303;51.960;8.372;2023-04-23T14:43:01;3.07;;;0.70;;
20287;SDS011;10303;51.960;8.372;2023-04-23T14:45:28;1.07;;;0.83;;
20287;SDS011;10303;51.960;8.372;2023-04-23T14:48:17;0.87;;;0.50;;